sensor_id;sensor_type;location;lat;lon;timestamp;temperature;humidity
11152;DHT22;5630;49.342;10.802;2024-03-07T00:02:08;4.30;99.90
11152;DHT22;5630;49.342;10.802;2024-03-07T00:04:34;4.20;99.90
11152;DHT22;5630;49.342;10.802;2024-03-07T00:07:04;4.10;99.90
11152;DHT22;5630;49.342;10.802;2024-03-07T00:12:01;4.00;99.90
11152;DHT22;5630;49.342;10.802;2024-03-07T00:14:26;3.90;99.90
11152;DHT22;5630;49.342;10.802;2024-03-07T00:16:56;3.80;99.90
11152;DHT22;5630;49.342;10.802;2024-03-07T00:19:21;3.80;99.90
11152;DHT22;5630;49.342;10.802;2024-03-07T00:21:50;3.60;99.90
11152;DHT22;5630;49.342;10.802;2024-03-07T00:24:15;3.60;99.90
11152;DHT22;5630;49.342;10.802;2024-03-07T00:26:41;3.70;99.90
11152;DHT22;5630;49.342;10.802;2024-03-07T00:29:07;3.70;99.90
11152;DHT22;5630;49.342;10.802;2024-03-07T00:31:34;3.70;99.90
11152;DHT22;5630;49.342;10.802;2024-03-07T00:33:59;3.60;99.90
11152;DHT22;5630;49.342;10.802;2024-03-07T00:36:25;3.70;99.90
11152;DHT22;5630;49.342;10.802;2024-03-07T00:38:52;3.60;99.90
11152;DHT22;5630;49.342;10.802;2024-03-07T00:41:17;3.60;99.90
11152;DHT22;5630;49.342;10.802;2024-03-07T00:43:43;3.60;99.90
11152;DHT22;5630;49.342;10.802;2024-03-07T00:46:09;3.50;99.90
11152;DHT22;5630;49.342;10.802;2024-03-07T00:48:36;3.60;99.90
11152;DHT22;5630;49.342;10.802;2024-03-07T00:51:03;3.60;99.90
11152;DHT22;5630;49.342;10.802;2024-03-07T00:53:29;3.60;99.90
11152;DHT22;5630;49.342;10.802;2024-03-07T00:55:55;3.60;99.90
11152;DHT22;5630;49.342;10.802;2024-03-07T00:58:21;3.50;99.90
11152;DHT22;5630;49.342;10.802;2024-03-07T01:00:46;3.60;99.90
11152;DHT22;5630;49.342;10.802;2024-03-07T01:03:12;3.50;99.90
11152;DHT22;5630;49.342;10.802;2024-03-07T01:05:39;3.60;99.90
11152;DHT22;5630;49.342;10.802;2024-03-07T01:08:05;3.50;99.90
11152;DHT22;5630;49.342;10.802;2024-03-07T01:10:31;3.50;99.90
11152;DHT22;5630;49.342;10.802;2024-03-07T01:12:57;3.50;99.90
11152;DHT22;5630;49.342;10.802;2024-03-07T01:15:27;3.50;99.90
11152;DHT22;5630;49.342;10.802;2024-03-07T01:17:53;3.50;99.90
11152;DHT22;5630;49.342;10.802;2024-03-07T01:20:18;3.50;99.90
11152;DHT22;5630;49.342;10.802;2024-03-07T01:22:44;3.50;99.90
11152;DHT22;5630;49.342;10.802;2024-03-07T01:25:10;3.50;99.90
11152;DHT22;5630;49.342;10.802;2024-03-07T01:27:38;3.50;99.90
11152;DHT22;5630;49.342;10.802;2024-03-07T01:30:04;3.40;99.90
11152;DHT22;5630;49.342;10.802;2024-03-07T01:32:33;3.40;99.90
11152;DHT22;5630;49.342;10.802;2024-03-07T01:34:59;3.20;99.90
11152;DHT22;5630;49.342;10.802;2024-03-07T01:37:24;3.20;99.90
11152;DHT22;5630;49.342;10.802;2024-03-07T01:39:50;3.20;99.90
11152;DHT22;5630;49.342;10.802;2024-03-07T01:42:15;3.10;99.90
11152;DHT22;5630;49.342;10.802;2024-03-07T01:44:41;3.10;99.90
11152;DHT22;5630;49.342;10.802;2024-03-07T01:47:07;3.10;99.90
11152;DHT22;5630;49.342;10.802;2024-03-07T01:49:33;3.10;99.90
11152;DHT22;5630;49.342;10.802;2024-03-07T01:51:59;3.10;99.90
11152;DHT22;5630;49.342;10.802;2024-03-07T01:54:25;3.10;99.90
11152;DHT22;5630;49.342;10.802;2024-03-07T01:56:51;3.20;99.90
11152;DHT22;5630;49.342;10.802;2024-03-07T01:59:18;3.20;99.90
11152;DHT22;5630;49.342;10.802;2024-03-07T02:01:46;3.10;99.90
11152;DHT22;5630;49.342;10.802;2024-03-07T02:04:12;3.20;99.90
11152;DHT22;5630;49.342;10.802;2024-03-07T02:06:38;3.20;99.90
11152;DHT22;5630;49.342;10.802;2024-03-07T02:09:04;3.20;99.90
11152;DHT22;5630;49.342;10.802;2024-03-07T02:11:31;3.20;99.90
11152;DHT22;5630;49.342;10.802;2024-03-07T02:13:57;3.30;99.90
11152;DHT22;5630;49.342;10.802;2024-03-07T02:16:23;3.20;99.90
11152;DHT22;5630;49.342;10.802;2024-03-07T02:18:49;3.20;99.90
11152;DHT22;5630;49.342;10.802;2024-03-07T02:21:15;3.20;99.90
11152;DHT22;5630;49.342;10.802;2024-03-07T02:23:41;3.30;99.90
11152;DHT22;5630;49.342;10.802;2024-03-07T02:26:06;3.30;99.90
11152;DHT22;5630;49.342;10.802;2024-03-07T02:28:33;3.30;99.90
11152;DHT22;5630;49.342;10.802;2024-03-07T02:31:00;3.30;99.90
11152;DHT22;5630;49.342;10.802;2024-03-07T02:33:25;3.30;99.90
11152;DHT22;5630;49.342;10.802;2024-03-07T02:35:51;3.30;99.90
11152;DHT22;5630;49.342;10.802;2024-03-07T02:38:17;3.30;99.90
11152;DHT22;5630;49.342;10.802;2024-03-07T02:40:43;3.30;99.90
11152;DHT22;5630;49.342;10.802;2024-03-07T02:43:08;3.30;99.90
11152;DHT22;5630;49.342;10.802;2024-03-07T02:45:34;3.40;99.90
11152;DHT22;5630;49.342;10.802;2024-03-07T02:48:00;3.40;99.90
11152;DHT22;5630;49.342;10.802;2024-03-07T02:50:25;3.40;99.90
11152;DHT22;5630;49.342;10.802;2024-03-07T02:52:51;3.40;99.90
11152;DHT22;5630;49.342;10.802;2024-03-07T02:55:18;3.40;99.90
11152;DHT22;5630;49.342;10.802;2024-03-07T02:57:44;3.40;99.90
11152;DHT22;5630;49.342;10.802;2024-03-07T03:00:11;3.40;99.90
11152;DHT22;5630;49.342;10.802;2024-03-07T03:02:48;3.40;99.90
11152;DHT22;5630;49.342;10.802;2024-03-07T03:05:15;3.40;99.90
11152;DHT22;5630;49.342;10.802;2024-03-07T03:07:41;3.40;99.90
11152;DHT22;5630;49.342;10.802;2024-03-07T03:10:07;3.50;99.90
11152;DHT22;5630;49.342;10.802;2024-03-07T03:12:33;3.40;99.90
11152;DHT22;5630;49.342;10.802;2024-03-07T03:14:59;3.40;99.90
11152;DHT22;5630;49.342;10.802;2024-03-07T03:17:24;3.50;99.90
11152;DHT22;5630;49.342;10.802;2024-03-07T03:19:50;3.50;99.90
11152;DHT22;5630;49.342;10.802;2024-03-07T03:22:17;3.50;99.90
11152;DHT22;5630;49.342;10.802;2024-03-07T03:24:43;3.40;99.90
11152;DHT22;5630;49.342;10.802;2024-03-07T03:27:09;3.50;99.90
11152;DHT22;5630;49.342;10.802;2024-03-07T03:29:36;3.40;99.90
11152;DHT22;5630;49.342;10.802;2024-03-07T03:32:01;3.50;99.90
11152;DHT22;5630;49.342;10.802;2024-03-07T03:34:27;3.50;99.90
11152;DHT22;5630;49.342;10.802;2024-03-07T03:36:52;3.40;99.90
11152;DHT22;5630;49.342;10.802;2024-03-07T03:39:18;3.40;99.90
11152;DHT22;5630;49.342;10.802;2024-03-07T03:41:46;3.40;99.90
11152;DHT22;5630;49.342;10.802;2024-03-07T03:44:11;3.50;99.90
11152;DHT22;5630;49.342;10.802;2024-03-07T03:46:37;3.40;99.90
11152;DHT22;5630;49.342;10.802;2024-03-07T03:49:02;3.40;99.90
11152;DHT22;5630;49.342;10.802;2024-03-07T03:51:29;3.40;99.90
11152;DHT22;5630;49.342;10.802;2024-03-07T03:53:55;3.30;99.90
11152;DHT22;5630;49.342;10.802;2024-03-07T03:56:21;3.30;99.90
11152;DHT22;5630;49.342;10.802;2024-03-07T03:58:46;3.30;99.90
11152;DHT22;5630;49.342;10.802;2024-03-07T04:01:12;3.30;99.90
11152;DHT22;5630;49.342;10.802;2024-03-07T04:03:40;3.40;99.90
11152;DHT22;5630;49.342;10.802;2024-03-07T04:06:05;3.30;99.90
11152;DHT22;5630;49.342;10.802;2024-03-07T04:08:31;3.30;99.90
11152;DHT22;5630;49.342;10.802;2024-03-07T04:10:56;3.30;99.90
11152;DHT22;5630;49.342;10.802;2024-03-07T04:13:22;3.30;99.90
11152;DHT22;5630;49.342;10.802;2024-03-07T04:15:48;3.30;99.90
11152;DHT22;5630;49.342;10.802;2024-03-07T04:18:13;3.30;99.90
11152;DHT22;5630;49.342;10.802;2024-03-07T04:20:39;3.40;99.90
11152;DHT22;5630;49.342;10.802;2024-03-07T04:23:04;3.40;99.90
11152;DHT22;5630;49.342;10.802;2024-03-07T04:25:31;3.40;99.90
11152;DHT22;5630;49.342;10.802;2024-03-07T04:27:58;3.40;99.90
11152;DHT22;5630;49.342;10.802;2024-03-07T04:30:24;3.40;99.90
11152;DHT22;5630;49.342;10.802;2024-03-07T04:32:50;3.40;99.90
11152;DHT22;5630;49.342;10.802;2024-03-07T04:35:17;3.40;99.90
11152;DHT22;5630;49.342;10.802;2024-03-07T04:37:43;3.40;99.90
11152;DHT22;5630;49.342;10.802;2024-03-07T04:40:09;3.40;99.90
11152;DHT22;5630;49.342;10.802;2024-03-07T04:42:44;3.30;99.90
11152;DHT22;5630;49.342;10.802;2024-03-07T04:45:11;3.30;99.90
11152;DHT22;5630;49.342;10.802;2024-03-07T04:47:42;3.30;99.90
11152;DHT22;5630;49.342;10.802;2024-03-07T04:50:08;3.30;99.90
11152;DHT22;5630;49.342;10.802;2024-03-07T04:52:39;3.30;99.90
11152;DHT22;5630;49.342;10.802;2024-03-07T04:55:06;3.30;99.90
11152;DHT22;5630;49.342;10.802;2024-03-07T04:57:39;3.30;99.90
11152;DHT22;5630;49.342;10.802;2024-03-07T05:00:10;3.30;99.90
11152;DHT22;5630;49.342;10.802;2024-03-07T05:02:43;3.30;99.90
11152;DHT22;5630;49.342;10.802;2024-03-07T05:05:09;3.30;99.90
11152;DHT22;5630;49.342;10.802;2024-03-07T05:07:35;3.30;99.90
11152;DHT22;5630;49.342;10.802;2024-03-07T05:10:04;3.30;99.90
11152;DHT22;5630;49.342;10.802;2024-03-07T05:12:31;3.30;99.90
11152;DHT22;5630;49.342;10.802;2024-03-07T05:14:56;3.20;99.90
11152;DHT22;5630;49.342;10.802;2024-03-07T05:17:22;3.20;99.90
11152;DHT22;5630;49.342;10.802;2024-03-07T05:19:48;3.20;99.90
11152;DHT22;5630;49.342;10.802;2024-03-07T05:22:15;3.20;99.90
11152;DHT22;5630;49.342;10.802;2024-03-07T05:24:44;3.20;99.90
11152;DHT22;5630;49.342;10.802;2024-03-07T05:27:10;3.10;99.90
11152;DHT22;5630;49.342;10.802;2024-03-07T05:32:23;3.10;99.90
11152;DHT22;5630;49.342;10.802;2024-03-07T05:34:49;3.10;99.90
11152;DHT22;5630;49.342;10.802;2024-03-07T05:37:15;3.10;99.90
11152;DHT22;5630;49.342;10.802;2024-03-07T05:39:40;3.10;99.90
11152;DHT22;5630;49.342;10.802;2024-03-07T05:42:06;3.10;99.90
11152;DHT22;5630;49.342;10.802;2024-03-07T05:44:35;3.10;99.90
11152;DHT22;5630;49.342;10.802;2024-03-07T05:47:01;3.00;99.90
11152;DHT22;5630;49.342;10.802;2024-03-07T05:49:26;3.10;99.90
11152;DHT22;5630;49.342;10.802;2024-03-07T05:51:52;3.10;99.90
11152;DHT22;5630;49.342;10.802;2024-03-07T05:54:17;3.10;99.90
11152;DHT22;5630;49.342;10.802;2024-03-07T05:56:43;3.10;99.90
11152;DHT22;5630;49.342;10.802;2024-03-07T05:59:09;3.10;99.90
11152;DHT22;5630;49.342;10.802;2024-03-07T06:01:37;3.20;99.90
11152;DHT22;5630;49.342;10.802;2024-03-07T06:04:07;3.00;99.90
11152;DHT22;5630;49.342;10.802;2024-03-07T06:06:33;3.10;99.90
11152;DHT22;5630;49.342;10.802;2024-03-07T06:09:05;3.00;99.90
11152;DHT22;5630;49.342;10.802;2024-03-07T06:11:34;3.00;99.90
11152;DHT22;5630;49.342;10.802;2024-03-07T06:14:01;3.10;99.90
11152;DHT22;5630;49.342;10.802;2024-03-07T06:16:33;3.00;99.90
11152;DHT22;5630;49.342;10.802;2024-03-07T06:19:00;2.90;99.90
11152;DHT22;5630;49.342;10.802;2024-03-07T06:21:29;3.00;99.90
11152;DHT22;5630;49.342;10.802;2024-03-07T06:23:58;3.00;99.90
11152;DHT22;5630;49.342;10.802;2024-03-07T06:26:32;3.00;99.90
11152;DHT22;5630;49.342;10.802;2024-03-07T06:29:10;3.00;99.90
11152;DHT22;5630;49.342;10.802;2024-03-07T06:31:37;3.00;99.90
11152;DHT22;5630;49.342;10.802;2024-03-07T06:34:03;3.10;99.90
11152;DHT22;5630;49.342;10.802;2024-03-07T06:36:29;3.10;99.90
11152;DHT22;5630;49.342;10.802;2024-03-07T06:38:55;3.10;99.90
11152;DHT22;5630;49.342;10.802;2024-03-07T06:41:20;3.10;99.90
11152;DHT22;5630;49.342;10.802;2024-03-07T06:43:46;3.10;99.90
11152;DHT22;5630;49.342;10.802;2024-03-07T06:46:12;3.20;99.90
11152;DHT22;5630;49.342;10.802;2024-03-07T06:48:38;3.20;99.90
11152;DHT22;5630;49.342;10.802;2024-03-07T06:51:07;3.20;99.90
11152;DHT22;5630;49.342;10.802;2024-03-07T06:53:33;3.20;99.90
11152;DHT22;5630;49.342;10.802;2024-03-07T06:55:59;3.20;99.90
11152;DHT22;5630;49.342;10.802;2024-03-07T06:58:25;3.30;99.90
11152;DHT22;5630;49.342;10.802;2024-03-07T07:00:52;3.30;99.90
11152;DHT22;5630;49.342;10.802;2024-03-07T07:03:20;3.60;99.90
11152;DHT22;5630;49.342;10.802;2024-03-07T07:05:46;5.80;99.90
11152;DHT22;5630;49.342;10.802;2024-03-07T07:15:33;7.30;99.90
11152;DHT22;5630;49.342;10.802;2024-03-07T07:18:00;10.10;99.90
11152;DHT22;5630;49.342;10.802;2024-03-07T07:20:27;9.70;99.90
11152;DHT22;5630;49.342;10.802;2024-03-07T07:22:53;8.70;99.90
11152;DHT22;5630;49.342;10.802;2024-03-07T07:25:19;8.00;99.90
11152;DHT22;5630;49.342;10.802;2024-03-07T07:27:48;7.50;99.90
11152;DHT22;5630;49.342;10.802;2024-03-07T07:32:42;6.00;99.90
11152;DHT22;5630;49.342;10.802;2024-03-07T07:35:09;5.90;99.90
11152;DHT22;5630;49.342;10.802;2024-03-07T07:37:55;6.00;99.90
11152;DHT22;5630;49.342;10.802;2024-03-07T07:40:23;5.60;99.90
11152;DHT22;5630;49.342;10.802;2024-03-07T07:42:50;5.50;99.90
11152;DHT22;5630;49.342;10.802;2024-03-07T07:45:17;5.40;99.90
11152;DHT22;5630;49.342;10.802;2024-03-07T07:47:45;5.30;99.90
11152;DHT22;5630;49.342;10.802;2024-03-07T07:50:12;5.20;99.90
11152;DHT22;5630;49.342;10.802;2024-03-07T07:52:54;5.20;99.90
11152;DHT22;5630;49.342;10.802;2024-03-07T07:55:21;5.10;99.90
11152;DHT22;5630;49.342;10.802;2024-03-07T07:57:50;5.20;99.90
11152;DHT22;5630;49.342;10.802;2024-03-07T08:00:18;5.20;99.90
11152;DHT22;5630;49.342;10.802;2024-03-07T08:02:52;5.30;99.90
11152;DHT22;5630;49.342;10.802;2024-03-07T08:05:19;5.40;99.90
11152;DHT22;5630;49.342;10.802;2024-03-07T08:07:46;5.50;99.90
11152;DHT22;5630;49.342;10.802;2024-03-07T08:10:13;5.70;99.90
11152;DHT22;5630;49.342;10.802;2024-03-07T08:12:39;5.80;99.90
11152;DHT22;5630;49.342;10.802;2024-03-07T08:15:09;5.70;99.90
11152;DHT22;5630;49.342;10.802;2024-03-07T08:17:42;5.70;99.90
11152;DHT22;5630;49.342;10.802;2024-03-07T08:20:12;5.90;99.90
11152;DHT22;5630;49.342;10.802;2024-03-07T08:22:42;6.00;99.90
11152;DHT22;5630;49.342;10.802;2024-03-07T08:25:12;6.20;99.90
11152;DHT22;5630;49.342;10.802;2024-03-07T08:27:39;6.30;99.90
11152;DHT22;5630;49.342;10.802;2024-03-07T08:30:05;6.30;99.90
11152;DHT22;5630;49.342;10.802;2024-03-07T08:32:33;6.40;99.90
11152;DHT22;5630;49.342;10.802;2024-03-07T08:35:05;6.40;99.90
11152;DHT22;5630;49.342;10.802;2024-03-07T08:37:49;6.40;99.90
11152;DHT22;5630;49.342;10.802;2024-03-07T08:40:18;6.40;99.90
11152;DHT22;5630;49.342;10.802;2024-03-07T08:42:57;6.40;99.90
11152;DHT22;5630;49.342;10.802;2024-03-07T08:45:23;6.60;99.90
11152;DHT22;5630;49.342;10.802;2024-03-07T08:47:51;6.70;99.90
11152;DHT22;5630;49.342;10.802;2024-03-07T08:50:17;6.90;99.90
11152;DHT22;5630;49.342;10.802;2024-03-07T08:52:44;7.00;99.90
11152;DHT22;5630;49.342;10.802;2024-03-07T08:55:12;7.30;99.90
11152;DHT22;5630;49.342;10.802;2024-03-07T08:57:40;7.50;99.90
11152;DHT22;5630;49.342;10.802;2024-03-07T09:00:06;7.60;99.90
11152;DHT22;5630;49.342;10.802;2024-03-07T09:02:34;7.70;99.90
11152;DHT22;5630;49.342;10.802;2024-03-07T09:05:01;7.90;99.90
11152;DHT22;5630;49.342;10.802;2024-03-07T09:07:26;8.00;99.90
11152;DHT22;5630;49.342;10.802;2024-03-07T09:09:52;8.10;99.90
11152;DHT22;5630;49.342;10.802;2024-03-07T09:12:17;8.10;99.90
11152;DHT22;5630;49.342;10.802;2024-03-07T09:14:45;8.10;99.90
11152;DHT22;5630;49.342;10.802;2024-03-07T09:17:11;8.00;99.90
11152;DHT22;5630;49.342;10.802;2024-03-07T09:19:37;8.10;99.90
11152;DHT22;5630;49.342;10.802;2024-03-07T09:22:03;8.20;99.90
11152;DHT22;5630;49.342;10.802;2024-03-07T09:24:30;8.30;99.90
11152;DHT22;5630;49.342;10.802;2024-03-07T09:34:19;8.40;99.90
11152;DHT22;5630;49.342;10.802;2024-03-07T09:36:46;8.70;99.90
11152;DHT22;5630;49.342;10.802;2024-03-07T09:39:12;8.70;99.90
11152;DHT22;5630;49.342;10.802;2024-03-07T09:41:38;8.70;99.90
11152;DHT22;5630;49.342;10.802;2024-03-07T09:44:05;8.70;99.90
11152;DHT22;5630;49.342;10.802;2024-03-07T09:46:31;8.60;99.90
11152;DHT22;5630;49.342;10.802;2024-03-07T09:48:58;8.70;99.90
11152;DHT22;5630;49.342;10.802;2024-03-07T09:51:24;8.90;99.90
11152;DHT22;5630;49.342;10.802;2024-03-07T09:53:51;9.00;99.90
11152;DHT22;5630;49.342;10.802;2024-03-07T09:56:20;9.10;99.90
11152;DHT22;5630;49.342;10.802;2024-03-07T09:58:51;9.00;99.90
11152;DHT22;5630;49.342;10.802;2024-03-07T10:01:22;8.90;99.90
11152;DHT22;5630;49.342;10.802;2024-03-07T10:03:55;8.90;99.90
11152;DHT22;5630;49.342;10.802;2024-03-07T10:06:22;9.00;99.90
11152;DHT22;5630;49.342;10.802;2024-03-07T10:08:50;9.00;99.90
11152;DHT22;5630;49.342;10.802;2024-03-07T10:11:16;8.90;99.90
11152;DHT22;5630;49.342;10.802;2024-03-07T10:13:41;8.70;99.90
11152;DHT22;5630;49.342;10.802;2024-03-07T10:16:07;8.70;99.90
11152;DHT22;5630;49.342;10.802;2024-03-07T10:18:41;8.60;99.90
11152;DHT22;5630;49.342;10.802;2024-03-07T10:21:07;8.60;99.90
11152;DHT22;5630;49.342;10.802;2024-03-07T10:23:32;8.50;99.90
11152;DHT22;5630;49.342;10.802;2024-03-07T10:26:00;8.40;99.90
11152;DHT22;5630;49.342;10.802;2024-03-07T10:28:27;8.40;99.90
11152;DHT22;5630;49.342;10.802;2024-03-07T10:30:53;8.30;99.90
11152;DHT22;5630;49.342;10.802;2024-03-07T10:33:19;8.60;99.90
11152;DHT22;5630;49.342;10.802;2024-03-07T10:35:48;8.50;99.90
11152;DHT22;5630;49.342;10.802;2024-03-07T10:38:16;8.50;99.90
11152;DHT22;5630;49.342;10.802;2024-03-07T10:40:47;8.60;99.90
11152;DHT22;5630;49.342;10.802;2024-03-07T10:43:13;8.60;99.90
11152;DHT22;5630;49.342;10.802;2024-03-07T10:45:45;8.60;99.90
11152;DHT22;5630;49.342;10.802;2024-03-07T10:48:17;8.60;99.90
11152;DHT22;5630;49.342;10.802;2024-03-07T10:56:56;8.80;99.90
11152;DHT22;5630;49.342;10.802;2024-03-07T10:59:26;8.80;99.90
11152;DHT22;5630;49.342;10.802;2024-03-07T11:02:17;8.60;99.90
11152;DHT22;5630;49.342;10.802;2024-03-07T11:04:47;8.70;99.90
11152;DHT22;5630;49.342;10.802;2024-03-07T11:07:14;8.80;99.90
11152;DHT22;5630;49.342;10.802;2024-03-07T11:09:40;8.80;99.90
11152;DHT22;5630;49.342;10.802;2024-03-07T11:12:08;8.80;99.90
11152;DHT22;5630;49.342;10.802;2024-03-07T11:14:38;8.80;99.90
11152;DHT22;5630;49.342;10.802;2024-03-07T11:17:05;8.70;99.90
11152;DHT22;5630;49.342;10.802;2024-03-07T11:19:33;8.70;99.90
11152;DHT22;5630;49.342;10.802;2024-03-07T11:22:03;8.70;99.90
11152;DHT22;5630;49.342;10.802;2024-03-07T11:24:41;8.90;99.90
11152;DHT22;5630;49.342;10.802;2024-03-07T11:27:09;8.90;99.90
11152;DHT22;5630;49.342;10.802;2024-03-07T11:29:48;9.00;99.90
11152;DHT22;5630;49.342;10.802;2024-03-07T11:32:18;9.00;99.90
11152;DHT22;5630;49.342;10.802;2024-03-07T11:34:46;9.10;99.90
11152;DHT22;5630;49.342;10.802;2024-03-07T11:37:38;9.10;99.90
11152;DHT22;5630;49.342;10.802;2024-03-07T11:40:10;9.00;99.90
11152;DHT22;5630;49.342;10.802;2024-03-07T11:42:45;9.10;99.90
11152;DHT22;5630;49.342;10.802;2024-03-07T11:45:13;9.10;99.90
11152;DHT22;5630;49.342;10.802;2024-03-07T11:47:54;9.10;99.90
11152;DHT22;5630;49.342;10.802;2024-03-07T11:50:29;9.10;99.90
11152;DHT22;5630;49.342;10.802;2024-03-07T11:53:01;9.10;99.90
11152;DHT22;5630;49.342;10.802;2024-03-07T11:55:27;9.20;99.90
11152;DHT22;5630;49.342;10.802;2024-03-07T11:58:09;9.10;99.90
11152;DHT22;5630;49.342;10.802;2024-03-07T12:00:35;9.00;99.90
11152;DHT22;5630;49.342;10.802;2024-03-07T12:03:01;8.90;99.90
11152;DHT22;5630;49.342;10.802;2024-03-07T12:05:27;8.80;99.90
11152;DHT22;5630;49.342;10.802;2024-03-07T12:07:52;8.80;99.90
11152;DHT22;5630;49.342;10.802;2024-03-07T12:10:19;8.80;99.90
11152;DHT22;5630;49.342;10.802;2024-03-07T12:12:50;8.80;99.90
11152;DHT22;5630;49.342;10.802;2024-03-07T12:15:16;8.70;99.90
11152;DHT22;5630;49.342;10.802;2024-03-07T12:17:45;8.60;99.90
11152;DHT22;5630;49.342;10.802;2024-03-07T12:20:12;8.60;99.90
11152;DHT22;5630;49.342;10.802;2024-03-07T12:23:00;8.70;99.90
11152;DHT22;5630;49.342;10.802;2024-03-07T12:25:31;8.60;99.90
11152;DHT22;5630;49.342;10.802;2024-03-07T12:28:04;8.60;99.90
11152;DHT22;5630;49.342;10.802;2024-03-07T12:30:33;8.70;99.90
11152;DHT22;5630;49.342;10.802;2024-03-07T12:33:01;8.70;99.90
11152;DHT22;5630;49.342;10.802;2024-03-07T12:35:30;8.70;99.90
11152;DHT22;5630;49.342;10.802;2024-03-07T12:37:56;8.70;99.90
11152;DHT22;5630;49.342;10.802;2024-03-07T12:40:22;8.70;99.90
11152;DHT22;5630;49.342;10.802;2024-03-07T12:42:51;8.80;99.90
11152;DHT22;5630;49.342;10.802;2024-03-07T12:45:19;8.70;99.90
11152;DHT22;5630;49.342;10.802;2024-03-07T12:47:47;8.70;99.90
11152;DHT22;5630;49.342;10.802;2024-03-07T12:50:16;8.80;99.90
11152;DHT22;5630;49.342;10.802;2024-03-07T12:52:42;8.80;99.90
11152;DHT22;5630;49.342;10.802;2024-03-07T12:55:07;8.80;99.90
11152;DHT22;5630;49.342;10.802;2024-03-07T12:57:33;8.80;99.90
11152;DHT22;5630;49.342;10.802;2024-03-07T12:59:59;8.80;99.90
11152;DHT22;5630;49.342;10.802;2024-03-07T13:02:24;8.80;99.90
11152;DHT22;5630;49.342;10.802;2024-03-07T13:04:53;8.80;99.90
11152;DHT22;5630;49.342;10.802;2024-03-07T13:07:18;8.80;99.90
11152;DHT22;5630;49.342;10.802;2024-03-07T13:09:44;8.90;99.90
11152;DHT22;5630;49.342;10.802;2024-03-07T13:12:09;8.90;99.90
11152;DHT22;5630;49.342;10.802;2024-03-07T13:14:35;8.90;99.90
11152;DHT22;5630;49.342;10.802;2024-03-07T13:17:02;8.90;99.90
11152;DHT22;5630;49.342;10.802;2024-03-07T13:19:32;8.90;99.90
11152;DHT22;5630;49.342;10.802;2024-03-07T13:21:58;8.90;99.90
11152;DHT22;5630;49.342;10.802;2024-03-07T13:24:25;8.90;99.90
11152;DHT22;5630;49.342;10.802;2024-03-07T13:26:50;8.90;99.90
11152;DHT22;5630;49.342;10.802;2024-03-07T13:29:17;8.80;99.90
11152;DHT22;5630;49.342;10.802;2024-03-07T13:31:44;8.70;99.90
11152;DHT22;5630;49.342;10.802;2024-03-07T13:34:10;8.70;99.90
11152;DHT22;5630;49.342;10.802;2024-03-07T13:36:42;8.70;99.90
11152;DHT22;5630;49.342;10.802;2024-03-07T13:39:12;8.70;99.90
11152;DHT22;5630;49.342;10.802;2024-03-07T13:41:42;8.60;99.90
11152;DHT22;5630;49.342;10.802;2024-03-07T13:44:08;8.50;99.90
11152;DHT22;5630;49.342;10.802;2024-03-07T13:46:34;8.60;99.90
11152;DHT22;5630;49.342;10.802;2024-03-07T13:49:00;8.50;99.90
11152;DHT22;5630;49.342;10.802;2024-03-07T13:51:42;8.50;99.90
11152;DHT22;5630;49.342;10.802;2024-03-07T13:54:19;8.60;99.90
11152;DHT22;5630;49.342;10.802;2024-03-07T14:28:40;8.80;99.90
11152;DHT22;5630;49.342;10.802;2024-03-07T14:31:08;8.70;99.90
11152;DHT22;5630;49.342;10.802;2024-03-07T14:34:00;9.40;99.90
11152;DHT22;5630;49.342;10.802;2024-03-07T14:36:41;10.20;99.90
11152;DHT22;5630;49.342;10.802;2024-03-07T14:39:10;10.80;99.90
11152;DHT22;5630;49.342;10.802;2024-03-07T14:44:21;10.20;99.90
11152;DHT22;5630;49.342;10.802;2024-03-07T14:46:51;9.90;99.90
11152;DHT22;5630;49.342;10.802;2024-03-07T14:49:19;9.60;99.90
11152;DHT22;5630;49.342;10.802;2024-03-07T14:51:46;9.50;99.90
11152;DHT22;5630;49.342;10.802;2024-03-07T14:54:14;9.30;99.90
11152;DHT22;5630;49.342;10.802;2024-03-07T14:56:40;9.20;99.90
11152;DHT22;5630;49.342;10.802;2024-03-07T14:59:06;9.10;99.90
11152;DHT22;5630;49.342;10.802;2024-03-07T15:01:32;9.00;99.90
11152;DHT22;5630;49.342;10.802;2024-03-07T15:04:02;8.80;99.90
11152;DHT22;5630;49.342;10.802;2024-03-07T15:06:35;8.80;99.90
11152;DHT22;5630;49.342;10.802;2024-03-07T15:09:01;8.60;99.90
11152;DHT22;5630;49.342;10.802;2024-03-07T15:11:34;8.60;99.90
11152;DHT22;5630;49.342;10.802;2024-03-07T15:13:59;8.50;99.90
11152;DHT22;5630;49.342;10.802;2024-03-07T15:16:27;8.40;99.90
11152;DHT22;5630;49.342;10.802;2024-03-07T15:21:19;8.50;99.90
11152;DHT22;5630;49.342;10.802;2024-03-07T15:23:46;8.30;99.90
11152;DHT22;5630;49.342;10.802;2024-03-07T15:26:11;8.30;99.90
11152;DHT22;5630;49.342;10.802;2024-03-07T15:28:37;8.20;99.90
11152;DHT22;5630;49.342;10.802;2024-03-07T15:31:03;8.20;99.90
11152;DHT22;5630;49.342;10.802;2024-03-07T15:33:35;8.20;99.90
11152;DHT22;5630;49.342;10.802;2024-03-07T15:36:00;8.10;99.90
11152;DHT22;5630;49.342;10.802;2024-03-07T15:38:28;8.00;99.90
11152;DHT22;5630;49.342;10.802;2024-03-07T15:41:02;8.00;99.90
11152;DHT22;5630;49.342;10.802;2024-03-07T15:43:28;8.00;99.90
11152;DHT22;5630;49.342;10.802;2024-03-07T15:45:54;7.90;99.90
11152;DHT22;5630;49.342;10.802;2024-03-07T15:48:23;7.90;99.90
11152;DHT22;5630;49.342;10.802;2024-03-07T15:50:50;7.80;99.90
11152;DHT22;5630;49.342;10.802;2024-03-07T15:53:17;7.80;99.90
11152;DHT22;5630;49.342;10.802;2024-03-07T15:55:43;7.90;99.90
11152;DHT22;5630;49.342;10.802;2024-03-07T15:58:08;7.70;99.90
11152;DHT22;5630;49.342;10.802;2024-03-07T16:00:36;7.70;99.90
11152;DHT22;5630;49.342;10.802;2024-03-07T16:03:06;7.70;99.90
11152;DHT22;5630;49.342;10.802;2024-03-07T16:05:36;7.60;99.90
11152;DHT22;5630;49.342;10.802;2024-03-07T16:08:04;7.60;99.90
11152;DHT22;5630;49.342;10.802;2024-03-07T16:10:35;7.60;99.90
11152;DHT22;5630;49.342;10.802;2024-03-07T16:13:06;7.50;99.90
11152;DHT22;5630;49.342;10.802;2024-03-07T16:15:33;7.50;99.90
11152;DHT22;5630;49.342;10.802;2024-03-07T16:17:59;7.50;99.90
11152;DHT22;5630;49.342;10.802;2024-03-07T16:20:25;7.60;99.90
11152;DHT22;5630;49.342;10.802;2024-03-07T16:22:51;7.50;99.90
11152;DHT22;5630;49.342;10.802;2024-03-07T16:25:18;7.50;99.90
11152;DHT22;5630;49.342;10.802;2024-03-07T16:27:46;7.50;99.90
11152;DHT22;5630;49.342;10.802;2024-03-07T16:30:13;7.50;99.90
11152;DHT22;5630;49.342;10.802;2024-03-07T16:32:40;7.30;99.90
11152;DHT22;5630;49.342;10.802;2024-03-07T16:35:07;7.30;99.90
11152;DHT22;5630;49.342;10.802;2024-03-07T16:37:40;7.20;99.90
11152;DHT22;5630;49.342;10.802;2024-03-07T16:40:08;7.20;99.90
11152;DHT22;5630;49.342;10.802;2024-03-07T16:42:35;7.20;99.90
11152;DHT22;5630;49.342;10.802;2024-03-07T16:45:11;7.10;99.90
11152;DHT22;5630;49.342;10.802;2024-03-07T16:47:40;7.10;99.90
11152;DHT22;5630;49.342;10.802;2024-03-07T16:50:07;7.20;99.90
11152;DHT22;5630;49.342;10.802;2024-03-07T16:52:40;7.00;99.90
11152;DHT22;5630;49.342;10.802;2024-03-07T16:55:09;7.00;99.90